createdAt,value
2018-08-07T00:00:16.215Z,24.50
2018-08-07T00:02:45.316Z,24.50
2018-08-07T00:05:14.984Z,24.40
2018-08-07T00:07:45.160Z,24.40
2018-08-07T00:10:16.800Z,24.30
2018-08-07T00:12:45.852Z,24.40
2018-08-07T00:15:14.921Z,24.30
2018-08-07T00:17:43.905Z,24.30
2018-08-07T00:20:14.709Z,24.30
2018-08-07T00:22:44.283Z,24.20
2018-08-07T00:25:13.434Z,24.20
2018-08-07T00:27:42.854Z,24.20
2018-08-07T00:30:14.100Z,24.20
2018-08-07T00:32:43.088Z,24.20
2018-08-07T00:35:14.549Z,24.20
2018-08-07T00:37:43.519Z,24.10
2018-08-07T00:40:14.092Z,24.10
2018-08-07T00:42:43.596Z,24.10
2018-08-07T00:45:14.432Z,24.10
2018-08-07T00:47:43.389Z,24.10
2018-08-07T00:50:15.366Z,24.10
2018-08-07T00:52:45.467Z,24.00
2018-08-07T00:55:14.647Z,24.00
2018-08-07T00:57:43.659Z,24.00
2018-08-07T01:00:13.472Z,24.00
2018-08-07T01:05:12.675Z,23.90
2018-08-07T01:07:41.572Z,23.90
2018-08-07T01:10:12.308Z,23.90
2018-08-07T01:12:41.245Z,23.90
2018-08-07T01:15:12.886Z,23.80
2018-08-07T01:17:42.256Z,23.80
2018-08-07T01:20:13.358Z,23.80
2018-08-07T01:22:42.592Z,23.80
2018-08-07T01:25:14.241Z,23.80
2018-08-07T01:27:43.174Z,23.80
2018-08-07T01:30:14.445Z,23.80
2018-08-07T01:32:43.379Z,23.80
2018-08-07T01:35:12.405Z,23.80
2018-08-07T01:37:42.246Z,23.80
2018-08-07T01:40:11.955Z,23.80
2018-08-07T01:42:41.089Z,23.80
2018-08-07T01:45:10.307Z,23.80
2018-08-07T01:47:39.519Z,23.80
2018-08-07T01:50:10.169Z,23.80
2018-08-07T01:52:39.082Z,23.80
2018-08-07T01:55:09.714Z,23.80
2018-08-07T01:57:38.659Z,23.70
2018-08-07T02:00:10.365Z,23.70
2018-08-07T02:02:39.281Z,23.70
2018-08-07T02:05:10.071Z,23.70
2018-08-07T02:07:39.168Z,23.60
2018-08-07T02:10:10.269Z,23.60
2018-08-07T02:12:39.244Z,23.70
2018-08-07T02:15:09.455Z,23.70
2018-08-07T02:17:38.344Z,23.70
2018-08-07T02:20:10.856Z,23.60
2018-08-07T02:22:40.541Z,23.70
2018-08-07T02:25:11.665Z,23.70
2018-08-07T02:27:40.597Z,23.60
2018-08-07T02:30:10.961Z,23.60
2018-08-07T02:32:39.933Z,23.60
2018-08-07T02:35:10.328Z,23.50
2018-08-07T02:37:39.695Z,23.50
2018-08-07T02:40:09.815Z,23.50
2018-08-07T02:42:38.737Z,23.50
2018-08-07T02:45:09.684Z,23.50
2018-08-07T02:47:39.088Z,23.40
2018-08-07T02:50:08.465Z,23.40
2018-08-07T02:52:37.792Z,23.40
2018-08-07T02:55:08.560Z,23.30
2018-08-07T02:57:37.548Z,23.30
2018-08-07T03:00:08.274Z,23.30
2018-08-07T03:02:37.219Z,23.30
2018-08-07T03:05:06.716Z,23.30
2018-08-07T03:07:35.636Z,23.30
2018-08-07T03:10:05.254Z,23.30
2018-08-07T03:12:34.156Z,23.30
2018-08-07T03:15:03.150Z,23.30
2018-08-07T03:17:32.214Z,23.30
2018-08-07T03:20:01.221Z,23.30
2018-08-07T03:22:30.900Z,23.30
2018-08-07T03:25:00.461Z,23.40
2018-08-07T03:27:30.170Z,23.30
2018-08-07T03:29:59.106Z,23.30
2018-08-07T03:32:28.497Z,23.30
2018-08-07T03:34:57.793Z,23.30
2018-08-07T03:37:27.161Z,23.20
2018-08-07T03:42:25.249Z,23.00
2018-08-07T03:44:54.407Z,23.00
2018-08-07T03:47:23.968Z,23.00
2018-08-07T03:49:53.117Z,23.10
2018-08-07T03:52:22.057Z,23.20
2018-08-07T03:54:51.076Z,23.20
2018-08-07T03:57:20.231Z,23.10
2018-08-07T03:59:49.678Z,23.10
2018-08-07T04:02:19.255Z,23.00
2018-08-07T04:04:49.001Z,23.00
2018-08-07T04:07:18.272Z,23.10
2018-08-07T04:09:47.598Z,23.10
2018-08-07T04:12:16.632Z,23.10
2018-08-07T04:14:46.003Z,23.10
2018-08-07T04:17:15.048Z,23.20
2018-08-07T04:19:44.144Z,23.20
2018-08-07T04:22:13.120Z,23.10
2018-08-07T04:24:42.025Z,23.10
2018-08-07T04:27:10.900Z,23.10
2018-08-07T04:29:39.788Z,23.10
2018-08-07T04:32:08.659Z,23.20
2018-08-07T04:34:37.534Z,23.20
2018-08-07T04:37:06.450Z,23.20
2018-08-07T04:39:35.352Z,23.20
2018-08-07T04:42:04.201Z,23.20
2018-08-07T04:44:33.140Z,23.30
2018-08-07T04:47:01.977Z,23.30
2018-08-07T04:49:30.869Z,23.30
2018-08-07T04:51:59.787Z,23.30
2018-08-07T04:54:28.617Z,23.30
2018-08-07T04:56:57.496Z,23.30
2018-08-07T04:59:26.382Z,23.40
2018-08-07T05:01:55.257Z,23.40
2018-08-07T05:04:24.142Z,23.40
2018-08-07T05:06:53.052Z,23.40
2018-08-07T05:09:22.052Z,23.40
2018-08-07T05:11:50.936Z,23.50
2018-08-07T05:14:20.014Z,23.50
2018-08-07T05:16:48.956Z,23.40
2018-08-07T05:19:17.877Z,23.40
2018-08-07T05:21:46.912Z,23.40
2018-08-07T05:24:15.979Z,23.40
2018-08-07T05:26:44.932Z,23.40
2018-08-07T05:29:13.974Z,23.40
2018-08-07T05:31:42.892Z,23.40
2018-08-07T05:34:11.986Z,23.50
2018-08-07T05:36:40.869Z,23.50
2018-08-07T05:39:10.653Z,23.40
2018-08-07T05:41:39.552Z,23.50
2018-08-07T05:44:08.596Z,23.50
2018-08-07T05:46:37.465Z,23.50
2018-08-07T05:49:06.347Z,23.50
2018-08-07T05:51:35.340Z,23.50
2018-08-07T05:54:04.158Z,23.60
2018-08-07T05:56:33.061Z,23.60
2018-08-07T05:59:01.964Z,23.60
2018-08-07T06:01:30.852Z,23.60
2018-08-07T06:03:59.718Z,23.60
2018-08-07T06:06:28.656Z,23.60
2018-08-07T06:08:57.528Z,23.60
2018-08-07T06:11:26.468Z,23.60
2018-08-07T06:13:55.461Z,23.60
2018-08-07T06:16:24.565Z,23.70
2018-08-07T06:18:54.089Z,23.70
2018-08-07T06:21:22.996Z,23.70
2018-08-07T06:23:51.973Z,23.70
2018-08-07T06:26:21.020Z,23.70
2018-08-07T06:28:50.022Z,23.70
2018-08-07T06:31:19.005Z,23.90
2018-08-07T06:33:47.922Z,23.90
2018-08-07T06:36:16.914Z,23.90
2018-08-07T06:38:45.928Z,24.10
2018-08-07T06:41:14.850Z,23.90
2018-08-07T06:43:43.929Z,23.90
2018-08-07T06:46:12.865Z,23.90
2018-08-07T06:48:41.753Z,24.00
2018-08-07T06:51:10.640Z,24.00
2018-08-07T06:53:39.521Z,24.00
2018-08-07T06:56:08.392Z,24.00
2018-08-07T06:58:37.302Z,24.00
2018-08-07T07:01:06.212Z,24.10
2018-08-07T07:03:35.123Z,24.10
2018-08-07T07:06:03.990Z,24.30
2018-08-07T07:08:32.861Z,24.20
2018-08-07T07:11:01.852Z,24.20
2018-08-07T07:13:30.738Z,24.30
2018-08-07T07:15:59.628Z,24.40
2018-08-07T07:18:28.530Z,24.40
2018-08-07T07:20:57.485Z,24.50
2018-08-07T07:23:26.268Z,24.50
2018-08-07T07:25:55.131Z,24.50
2018-08-07T07:28:23.965Z,24.50
2018-08-07T07:30:52.868Z,24.60
2018-08-07T07:33:21.786Z,24.70
2018-08-07T07:35:50.787Z,24.70
2018-08-07T07:38:19.784Z,24.80
2018-08-07T07:40:48.740Z,24.90
2018-08-07T07:43:17.692Z,24.90
2018-08-07T07:45:46.685Z,24.90
2018-08-07T07:48:15.653Z,25.00
2018-08-07T07:50:44.571Z,25.00
2018-08-07T07:53:13.612Z,25.10
2018-08-07T07:55:42.496Z,25.10
2018-08-07T07:58:11.344Z,25.10
2018-08-07T08:00:40.205Z,25.20
2018-08-07T08:03:09.084Z,25.30
2018-08-07T08:05:38.032Z,25.30
2018-08-07T08:08:06.877Z,25.20
2018-08-07T08:10:35.835Z,25.30
2018-08-07T08:13:04.689Z,25.40
2018-08-07T08:15:33.571Z,25.40
2018-08-07T08:18:02.442Z,25.40
2018-08-07T08:20:31.324Z,25.30
2018-08-07T08:23:00.252Z,25.50
2018-08-07T08:25:29.418Z,25.50
2018-08-07T08:27:58.345Z,25.50
2018-08-07T08:30:27.234Z,25.50
2018-08-07T08:32:56.169Z,25.50
2018-08-07T08:35:25.283Z,25.50
2018-08-07T08:37:55.214Z,25.60
2018-08-07T08:40:29.232Z,25.60
2018-08-07T08:42:58.113Z,25.60
2018-08-07T08:45:27.117Z,25.60
2018-08-07T08:47:58.589Z,25.60
2018-08-07T08:50:29.663Z,25.60
2018-08-07T08:52:58.515Z,25.50
2018-08-07T08:55:27.412Z,25.60
2018-08-07T09:00:30.520Z,25.60
2018-08-07T09:03:00.745Z,25.80
2018-08-07T09:05:29.776Z,25.80
2018-08-07T09:07:58.674Z,26.00
2018-08-07T09:10:29.184Z,25.90
2018-08-07T09:12:58.786Z,25.90
2018-08-07T09:15:27.693Z,25.80
2018-08-07T09:17:56.632Z,25.90
2018-08-07T09:20:27.606Z,26.00
2018-08-07T09:22:57.028Z,25.90
2018-08-07T09:25:26.953Z,25.90
2018-08-07T09:27:55.850Z,26.10
2018-08-07T09:30:26.501Z,26.20
2018-08-07T09:32:56.206Z,26.10
2018-08-07T09:35:25.276Z,26.00
2018-08-07T09:37:55.036Z,26.10
2018-08-07T09:40:24.073Z,26.30
2018-08-07T09:42:54.232Z,26.20
2018-08-07T09:45:28.761Z,26.10
2018-08-07T09:47:57.718Z,26.00
2018-08-07T09:50:26.633Z,25.90
2018-08-07T09:52:55.601Z,26.50
2018-08-07T09:55:24.608Z,26.70
2018-08-07T09:57:53.529Z,26.70
2018-08-07T10:00:28.017Z,26.50
2018-08-07T10:02:59.569Z,26.20
2018-08-07T10:05:29.812Z,26.50
2018-08-07T10:07:58.684Z,26.50
2018-08-07T10:10:27.721Z,26.30
2018-08-07T10:12:56.621Z,26.20
2018-08-07T10:15:25.503Z,26.60
2018-08-07T10:17:54.454Z,26.70
2018-08-07T10:20:23.276Z,26.30
2018-08-07T10:22:52.117Z,26.50
2018-08-07T10:25:21.272Z,27.20
2018-08-07T10:27:50.354Z,27.30
2018-08-07T10:30:20.884Z,27.10
2018-08-07T10:32:50.208Z,27.00
2018-08-07T10:35:19.236Z,27.70
2018-08-07T10:37:48.449Z,27.70
2018-08-07T10:40:19.676Z,27.40
2018-08-07T10:42:48.585Z,26.70
2018-08-07T10:45:19.140Z,26.60
2018-08-07T10:47:48.153Z,27.70
2018-08-07T10:50:25.684Z,27.50
2018-08-07T10:52:54.609Z,27.30
2018-08-07T10:55:24.288Z,26.80
2018-08-07T10:57:54.473Z,27.20
2018-08-07T11:00:25.369Z,27.30
2018-08-07T11:02:54.856Z,27.10
2018-08-07T11:05:24.298Z,28.40
2018-08-07T11:07:53.201Z,27.70
2018-08-07T11:10:22.508Z,28.50
2018-08-07T11:12:51.681Z,28.30
2018-08-07T11:15:23.892Z,27.70
2018-08-07T11:17:53.725Z,28.60
2018-08-07T11:20:22.851Z,28.90
2018-08-07T11:22:52.864Z,28.90
2018-08-07T11:25:23.115Z,28.10
2018-08-07T11:27:52.053Z,27.90
2018-08-07T11:30:23.263Z,27.80
2018-08-07T11:32:53.009Z,27.60
2018-08-07T11:35:22.941Z,27.80
2018-08-07T11:37:53.048Z,27.70
2018-08-07T11:40:23.228Z,28.20
2018-08-07T11:42:52.796Z,29.60
2018-08-07T11:45:23.644Z,29.10
2018-08-07T11:47:52.570Z,28.10
2018-08-07T11:50:23.719Z,27.10
2018-08-07T11:52:52.591Z,26.50
2018-08-07T11:55:21.796Z,26.10
2018-08-07T11:57:51.689Z,25.80
2018-08-07T12:00:21.786Z,26.20
2018-08-07T12:02:50.729Z,27.70
2018-08-07T12:05:19.715Z,27.50
2018-08-07T12:07:48.625Z,26.50
2018-08-07T12:10:18.523Z,25.80
2018-08-07T12:12:47.556Z,25.80
2018-08-07T12:15:18.814Z,26.10
2018-08-07T12:17:47.860Z,26.00
2018-08-07T12:20:16.828Z,26.10
2018-08-07T12:22:45.860Z,25.80
2018-08-07T12:25:15.899Z,25.50
2018-08-07T12:27:44.914Z,25.40
2018-08-07T12:30:18.303Z,25.30
2018-08-07T12:32:47.290Z,25.20
2018-08-07T12:35:16.340Z,25.30
2018-08-07T12:37:45.381Z,25.50
2018-08-07T12:40:17.079Z,26.20
2018-08-07T12:42:46.484Z,25.90
2018-08-07T12:45:15.489Z,25.60
2018-08-07T12:47:44.976Z,25.40
2018-08-07T12:50:15.379Z,25.60
2018-08-07T12:52:44.348Z,25.50
2018-08-07T12:55:15.701Z,26.60
2018-08-07T12:57:45.151Z,26.80
2018-08-07T13:00:16.377Z,27.80
2018-08-07T13:02:45.412Z,26.60
2018-08-07T13:05:14.364Z,25.90
2018-08-07T13:07:43.349Z,25.60
2018-08-07T13:10:20.492Z,25.80
2018-08-07T13:12:50.499Z,27.00
2018-08-07T13:15:20.237Z,27.00
2018-08-07T13:17:49.735Z,26.20
2018-08-07T13:20:18.678Z,26.10
2018-08-07T13:22:48.078Z,27.30
2018-08-07T13:25:19.656Z,26.60
2018-08-07T13:27:48.603Z,26.20
2018-08-07T13:30:26.250Z,25.90
2018-08-07T13:32:55.521Z,25.60
2018-08-07T13:35:24.600Z,26.00
2018-08-07T13:37:53.772Z,26.80
2018-08-07T13:40:23.905Z,28.90
2018-08-07T13:42:53.306Z,28.00
2018-08-07T13:45:23.459Z,26.90
2018-08-07T13:47:52.425Z,26.80
2018-08-07T13:50:22.706Z,26.30
2018-08-07T13:52:52.051Z,27.40
2018-08-07T13:55:22.157Z,27.20
2018-08-07T13:57:51.173Z,26.30
2018-08-07T14:00:21.900Z,25.90
2018-08-07T14:02:51.451Z,25.70
2018-08-07T14:05:21.071Z,25.60
2018-08-07T14:07:50.960Z,25.50
2018-08-07T14:10:20.731Z,25.50
2018-08-07T14:12:49.747Z,25.40
2018-08-07T14:15:19.374Z,25.50
2018-08-07T14:17:48.549Z,25.40
2018-08-07T14:20:18.237Z,25.50
2018-08-07T14:22:47.649Z,26.00
2018-08-07T14:25:21.288Z,26.70
2018-08-07T14:27:50.336Z,26.90
2018-08-07T14:30:22.462Z,26.50
2018-08-07T14:32:51.525Z,25.90
2018-08-07T14:35:20.736Z,25.70
2018-08-07T14:37:50.221Z,25.70
2018-08-07T14:40:20.563Z,25.50
2018-08-07T14:42:50.621Z,25.30
2018-08-07T14:45:21.413Z,26.60
2018-08-07T14:47:51.151Z,26.40
2018-08-07T14:50:22.718Z,26.10
2018-08-07T14:52:51.648Z,27.40
2018-08-07T14:55:20.641Z,26.90
2018-08-07T14:57:49.737Z,27.20
2018-08-07T15:00:21.825Z,27.50
2018-08-07T15:02:50.785Z,28.00
2018-08-07T15:05:19.874Z,26.90
2018-08-07T15:07:48.875Z,26.50
2018-08-07T15:10:19.734Z,26.50
2018-08-07T15:12:48.716Z,26.50
2018-08-07T15:15:22.483Z,26.80
2018-08-07T15:17:51.464Z,27.60
2018-08-07T15:20:23.296Z,28.20
2018-08-07T15:22:52.784Z,27.90
2018-08-07T15:27:50.862Z,26.30
2018-08-07T15:30:21.092Z,26.70
2018-08-07T15:32:50.652Z,26.40
2018-08-07T15:35:21.215Z,26.40
2018-08-07T15:37:50.127Z,26.50
2018-08-07T15:40:19.550Z,26.30
2018-08-07T15:42:48.849Z,26.10
2018-08-07T15:45:19.857Z,25.90
2018-08-07T15:47:48.832Z,25.60
2018-08-07T15:50:18.630Z,25.60
2018-08-07T15:52:49.216Z,25.90
2018-08-07T15:55:19.936Z,25.70
2018-08-07T15:57:48.965Z,25.70
2018-08-07T16:00:20.185Z,25.60
2018-08-07T16:02:49.142Z,25.90
2018-08-07T16:05:18.357Z,27.10
2018-08-07T16:07:47.864Z,26.40
2018-08-07T16:10:18.029Z,26.10
2018-08-07T16:12:47.994Z,26.10
2018-08-07T16:15:17.037Z,26.80
2018-08-07T16:17:47.030Z,26.70
2018-08-07T16:20:16.115Z,26.60
2018-08-07T16:22:45.108Z,26.60
2018-08-07T16:25:15.407Z,26.20
2018-08-07T16:27:45.364Z,25.90
2018-08-07T16:30:15.936Z,26.60
2018-08-07T16:32:44.754Z,27.00
2018-08-07T16:35:14.403Z,26.30
2018-08-07T16:37:43.756Z,25.90
2018-08-07T16:40:16.332Z,25.80
2018-08-07T16:42:46.778Z,25.70
2018-08-07T16:45:18.313Z,25.70
2018-08-07T16:47:47.482Z,25.80
2018-08-07T16:50:18.294Z,25.70
2018-08-07T16:52:47.556Z,26.00
2018-08-07T16:55:16.616Z,26.00
2018-08-07T16:57:45.739Z,25.90
2018-08-07T17:00:14.832Z,26.10
2018-08-07T17:02:43.798Z,25.90
2018-08-07T17:05:15.230Z,25.80
2018-08-07T17:07:44.861Z,25.70
2018-08-07T17:10:18.228Z,25.70
2018-08-07T17:12:47.378Z,25.80
2018-08-07T17:15:16.340Z,26.50
2018-08-07T17:20:17.736Z,25.90
2018-08-07T17:25:17.005Z,26.30
2018-08-07T17:27:47.334Z,26.30
2018-08-07T17:30:18.010Z,26.00
2018-08-07T17:32:47.286Z,25.80
2018-08-07T17:35:18.655Z,25.80
2018-08-07T17:37:48.529Z,25.90
2018-08-07T17:40:19.455Z,25.80
2018-08-07T17:42:48.551Z,26.00
2018-08-07T17:47:47.168Z,26.20
2018-08-07T17:50:20.529Z,26.40
2018-08-07T17:52:49.682Z,26.20
2018-08-07T17:55:18.662Z,26.00
2018-08-07T17:57:48.269Z,25.90
2018-08-07T18:00:18.689Z,25.90
2018-08-07T18:02:47.776Z,25.80
2018-08-07T18:05:17.083Z,25.70
2018-08-07T18:07:47.988Z,25.70
2018-08-07T18:10:18.046Z,25.70
2018-08-07T18:12:47.242Z,25.70
2018-08-07T18:15:17.333Z,25.70
2018-08-07T18:17:46.836Z,25.70
2018-08-07T18:20:18.031Z,25.70
2018-08-07T18:22:47.270Z,25.70
2018-08-07T18:25:16.273Z,25.70
2018-08-07T18:27:45.336Z,25.70
2018-08-07T18:30:18.128Z,25.70
2018-08-07T18:32:47.196Z,25.70
2018-08-07T18:35:18.082Z,25.70
2018-08-07T18:37:47.387Z,25.70
2018-08-07T18:40:16.373Z,25.70
2018-08-07T18:42:45.470Z,25.70
2018-08-07T18:45:14.789Z,25.70
2018-08-07T18:47:44.284Z,25.70
2018-08-07T18:50:15.953Z,25.70
2018-08-07T18:52:44.946Z,25.70
2018-08-07T18:55:14.634Z,25.70
2018-08-07T18:57:44.530Z,25.80
2018-08-07T19:00:15.648Z,25.80
2018-08-07T19:02:44.574Z,25.80
2018-08-07T19:05:15.318Z,25.70
2018-08-07T19:07:44.300Z,25.80
2018-08-07T19:10:13.628Z,25.80
2018-08-07T19:15:12.744Z,25.70
2018-08-07T19:17:41.666Z,25.80
2018-08-07T19:20:12.736Z,25.80
2018-08-07T19:25:11.060Z,25.80
2018-08-07T19:27:40.081Z,25.80
2018-08-07T19:30:10.573Z,25.80
2018-08-07T19:32:39.757Z,25.80
2018-08-07T19:35:09.558Z,25.80
2018-08-07T19:37:38.424Z,25.80
2018-08-07T19:40:09.157Z,25.80
2018-08-07T19:42:38.232Z,25.80
2018-08-07T19:45:08.634Z,25.80
2018-08-07T19:47:37.501Z,25.90
2018-08-07T19:50:07.609Z,25.90
2018-08-07T19:52:37.183Z,25.90
2018-08-07T19:57:36.349Z,26.00
2018-08-07T20:00:09.215Z,26.00
2018-08-07T20:05:06.821Z,26.00
2018-08-07T20:07:35.712Z,26.00
2018-08-07T20:10:06.005Z,25.90
2018-08-07T20:12:34.940Z,25.90
2018-08-07T20:15:04.764Z,26.00
2018-08-07T20:17:33.675Z,26.10
2018-08-07T20:20:02.688Z,26.20
2018-08-07T20:22:31.606Z,26.30
2018-08-07T20:27:29.047Z,26.50
2018-08-07T20:29:58.233Z,26.50
2018-08-07T20:32:27.135Z,26.50
2018-08-07T20:34:56.109Z,26.50
2018-08-07T20:37:25.080Z,26.50
2018-08-07T20:39:54.049Z,26.50
2018-08-07T20:42:22.970Z,26.50
2018-08-07T20:44:52.690Z,26.40
2018-08-07T20:47:21.708Z,26.40
2018-08-07T20:49:50.710Z,26.40
2018-08-07T20:52:19.645Z,26.40
2018-08-07T20:54:48.584Z,26.40
2018-08-07T20:57:17.508Z,26.20
2018-08-07T20:59:46.529Z,26.20
2018-08-07T21:02:15.583Z,26.20
2018-08-07T21:04:45.569Z,26.30
2018-08-07T21:07:16.281Z,26.40
2018-08-07T21:09:46.462Z,26.40
2018-08-07T21:12:15.550Z,26.50
2018-08-07T21:14:45.225Z,26.50
2018-08-07T21:17:14.336Z,26.40
2018-08-07T21:19:43.188Z,26.50
2018-08-07T21:22:12.155Z,26.60
2018-08-07T21:24:41.058Z,26.70
2018-08-07T21:27:13.120Z,26.80
2018-08-07T21:29:42.231Z,26.80
2018-08-07T21:32:11.184Z,26.80
2018-08-07T21:34:40.086Z,26.80
2018-08-07T21:37:14.838Z,26.80
2018-08-07T21:39:45.294Z,26.80
2018-08-07T21:42:14.443Z,26.80
2018-08-07T21:44:43.356Z,26.80
2018-08-07T21:47:12.201Z,26.70
2018-08-07T21:49:42.222Z,26.70
2018-08-07T21:52:11.944Z,26.80
2018-08-07T21:54:40.832Z,26.70
2018-08-07T21:59:38.294Z,26.70
2018-08-07T22:02:07.196Z,26.80
2018-08-07T22:04:36.109Z,26.80
2018-08-07T22:07:05.012Z,26.90
2018-08-07T22:09:34.028Z,26.90
2018-08-07T22:12:02.921Z,26.80
2018-08-07T22:14:31.801Z,26.80
2018-08-07T22:17:00.677Z,26.80
2018-08-07T22:19:29.606Z,26.90
2018-08-07T22:21:58.477Z,26.90
2018-08-07T22:24:27.557Z,26.90
2018-08-07T22:26:56.425Z,26.90
2018-08-07T22:29:25.355Z,27.00
2018-08-07T22:31:54.452Z,27.00
2018-08-07T22:34:23.317Z,27.00
2018-08-07T22:36:52.402Z,27.10
2018-08-07T22:39:21.393Z,27.20
2018-08-07T22:41:50.537Z,27.20
2018-08-07T22:44:19.470Z,27.20
2018-08-07T22:46:48.417Z,27.10
2018-08-07T22:49:17.356Z,27.20
2018-08-07T22:51:46.300Z,27.10
2018-08-07T22:54:15.296Z,27.20
2018-08-07T22:56:44.640Z,27.10
2018-08-07T22:59:13.758Z,27.20
2018-08-07T23:01:42.622Z,27.20
2018-08-07T23:04:11.545Z,27.20
2018-08-07T23:06:40.428Z,27.20
2018-08-07T23:09:09.665Z,27.20
2018-08-07T23:11:38.576Z,27.20
2018-08-07T23:14:07.433Z,27.20
2018-08-07T23:16:36.408Z,27.20
2018-08-07T23:19:05.353Z,27.20
2018-08-07T23:21:34.415Z,27.20
2018-08-07T23:24:03.272Z,27.20
2018-08-07T23:26:32.166Z,27.10
2018-08-07T23:29:01.066Z,27.10
2018-08-07T23:31:29.958Z,27.10
2018-08-07T23:33:58.812Z,27.10
2018-08-07T23:36:27.731Z,27.10
2018-08-07T23:38:56.596Z,27.00
2018-08-07T23:41:25.459Z,27.00
2018-08-07T23:43:54.344Z,27.00
2018-08-07T23:46:23.165Z,27.00
2018-08-07T23:48:52.021Z,27.00
2018-08-07T23:51:21.016Z,26.90
2018-08-07T23:53:49.974Z,26.90
2018-08-07T23:56:18.908Z,26.90
2018-08-07T23:58:47.824Z,26.80
